createdAt,value
2018-11-21T00:00:29.000Z,2.85
2018-11-21T00:01:28.990Z,2.81
2018-11-21T00:02:28.980Z,2.84
2018-11-21T00:03:28.969Z,2.79
2018-11-21T00:04:29.171Z,2.81
2018-11-21T00:05:28.951Z,2.74
2018-11-21T00:06:29.374Z,2.81
2018-11-21T00:07:28.932Z,2.77
2018-11-21T00:08:28.918Z,2.74
2018-11-21T00:09:29.903Z,2.77
2018-11-21T00:10:29.147Z,2.77
2018-11-21T00:11:28.889Z,2.77
2018-11-21T00:12:28.876Z,2.71
2018-11-21T00:13:29.189Z,2.79
2018-11-21T00:14:28.867Z,2.89
2018-11-21T00:15:28.848Z,2.89
2018-11-21T00:16:28.910Z,2.88
2018-11-21T00:17:28.828Z,2.76
2018-11-21T00:18:28.817Z,2.84
2018-11-21T00:19:28.810Z,2.76
2018-11-21T00:20:29.076Z,2.71
2018-11-21T00:21:28.788Z,2.69
2018-11-21T00:22:29.656Z,2.76
2018-11-21T00:23:28.768Z,2.77
2018-11-21T00:24:28.756Z,2.76
2018-11-21T00:25:28.747Z,2.79
2018-11-21T00:26:28.735Z,2.76
2018-11-21T00:27:30.055Z,2.74
2018-11-21T00:28:28.784Z,2.88
2018-11-21T00:29:28.705Z,2.87
2018-11-21T00:30:28.696Z,2.84
2018-11-21T00:31:28.685Z,2.81
2018-11-21T00:32:28.675Z,2.81
2018-11-21T00:33:28.665Z,2.84
2018-11-21T00:34:29.130Z,2.94
2018-11-21T00:35:28.644Z,2.92
2018-11-21T00:36:28.635Z,2.92
2018-11-21T00:37:28.627Z,2.95
2018-11-21T00:38:28.615Z,2.88
2018-11-21T00:39:28.605Z,2.91
2018-11-21T00:40:28.775Z,2.92
2018-11-21T00:41:29.077Z,2.88
2018-11-21T00:42:28.576Z,2.87
2018-11-21T00:43:28.564Z,2.94
2018-11-21T00:44:28.555Z,2.89
2018-11-21T00:45:28.547Z,2.95
2018-11-21T00:46:28.601Z,2.91
2018-11-21T00:47:28.523Z,2.89
2018-11-21T00:48:28.894Z,2.91
2018-11-21T00:49:28.503Z,2.92
2018-11-21T00:50:28.492Z,2.91
2018-11-21T00:51:28.483Z,2.89
2018-11-21T00:52:28.544Z,2.91
2018-11-21T00:53:28.462Z,2.89
2018-11-21T00:54:28.453Z,2.95
2018-11-21T00:55:28.443Z,2.97
2018-11-21T00:56:28.431Z,2.91
2018-11-21T00:57:28.420Z,2.88
2018-11-21T00:58:28.497Z,2.88
2018-11-21T00:59:28.400Z,2.92
2018-11-21T01:00:28.391Z,2.94
2018-11-21T01:01:28.705Z,2.92
2018-11-21T01:02:28.372Z,2.91
2018-11-21T01:03:28.361Z,2.95
2018-11-21T01:04:28.418Z,2.91
2018-11-21T01:05:28.341Z,2.92
2018-11-21T01:06:28.331Z,2.98
2018-11-21T01:07:28.699Z,2.95
2018-11-21T01:08:28.310Z,2.89
2018-11-21T01:09:28.302Z,2.94
2018-11-21T01:10:28.360Z,2.97
2018-11-21T01:11:28.283Z,3.07
2018-11-21T01:12:28.269Z,3.02
2018-11-21T01:13:28.694Z,3.05
2018-11-21T01:14:28.250Z,3.00
2018-11-21T01:15:28.242Z,2.92
2018-11-21T01:16:28.556Z,2.95
2018-11-21T01:17:28.219Z,2.97
2018-11-21T01:18:28.210Z,3.00
2018-11-21T01:19:28.676Z,2.89
2018-11-21T01:20:28.188Z,2.98
2018-11-21T01:21:28.179Z,2.95
2018-11-21T01:22:28.416Z,2.92
2018-11-21T01:23:28.159Z,2.95
2018-11-21T01:24:28.151Z,2.89
2018-11-21T01:25:28.464Z,2.88
2018-11-21T01:26:28.129Z,2.95
2018-11-21T01:27:28.121Z,2.94
2018-11-21T01:28:28.181Z,2.92
2018-11-21T01:29:28.098Z,2.95
2018-11-21T01:30:28.090Z,2.94
2018-11-21T01:31:28.079Z,2.94
2018-11-21T01:32:28.488Z,2.92
2018-11-21T01:33:28.058Z,2.87
2018-11-21T01:34:28.146Z,2.94
2018-11-21T01:35:28.041Z,3.03
2018-11-21T01:36:28.039Z,3.06
2018-11-21T01:37:28.018Z,2.98
2018-11-21T01:38:28.006Z,2.95
2018-11-21T01:39:28.302Z,2.97
2018-11-21T01:40:28.054Z,2.98
2018-11-21T01:41:27.977Z,3.00
2018-11-21T01:42:27.967Z,3.00
2018-11-21T01:43:27.961Z,3.02
2018-11-21T01:44:27.951Z,2.95
2018-11-21T01:45:27.939Z,2.95
2018-11-21T01:46:28.299Z,3.02
2018-11-21T01:47:27.916Z,3.07
2018-11-21T01:48:27.906Z,2.97
2018-11-21T01:49:27.898Z,3.05
2018-11-21T01:50:27.887Z,2.97
2018-11-21T01:51:27.876Z,2.97
2018-11-21T01:52:28.089Z,2.98
2018-11-21T01:53:28.132Z,3.06
2018-11-21T01:54:27.858Z,3.07
2018-11-21T01:55:27.835Z,2.88
2018-11-21T01:56:27.824Z,3.00
2018-11-21T01:57:27.814Z,2.94
2018-11-21T01:58:27.877Z,2.89
2018-11-21T01:59:27.793Z,2.95
2018-11-21T02:00:27.787Z,2.97
2018-11-21T02:01:27.777Z,2.97
2018-11-21T02:02:27.766Z,2.89
2018-11-21T02:03:27.757Z,2.97
2018-11-21T02:04:27.842Z,2.98
2018-11-21T02:05:27.739Z,2.97
2018-11-21T02:06:28.019Z,2.92
2018-11-21T02:07:27.714Z,2.95
2018-11-21T02:08:27.702Z,2.91
2018-11-21T02:09:27.694Z,2.92
2018-11-21T02:10:27.781Z,2.94
2018-11-21T02:11:27.673Z,2.91
2018-11-21T02:12:27.665Z,2.95
2018-11-21T02:13:27.942Z,2.95
2018-11-21T02:14:27.641Z,2.92
2018-11-21T02:15:27.633Z,2.97
2018-11-21T02:16:27.695Z,2.92
2018-11-21T02:17:27.612Z,2.97
2018-11-21T02:18:27.605Z,2.94
2018-11-21T02:19:27.594Z,2.91
2018-11-21T02:20:27.858Z,2.91
2018-11-21T02:21:27.572Z,2.88
2018-11-21T02:22:27.629Z,2.92
2018-11-21T02:23:27.554Z,2.88
2018-11-21T02:24:27.542Z,2.88
2018-11-21T02:25:27.534Z,2.91
2018-11-21T02:26:27.520Z,2.88
2018-11-21T02:27:27.792Z,2.85
2018-11-21T02:28:27.685Z,2.89
2018-11-21T02:29:27.504Z,2.87
2018-11-21T02:30:27.481Z,2.91
2018-11-21T02:31:27.470Z,2.97
2018-11-21T02:32:27.460Z,2.94
2018-11-21T02:33:27.450Z,2.81
2018-11-21T02:34:27.784Z,2.85
2018-11-21T02:35:27.429Z,2.81
2018-11-21T02:36:27.419Z,2.82
2018-11-21T02:37:27.415Z,2.77
2018-11-21T02:38:27.410Z,2.77
2018-11-21T02:39:27.429Z,2.82
2018-11-21T02:40:27.450Z,2.81
2018-11-21T02:41:27.646Z,2.81
2018-11-21T02:42:27.357Z,2.84
2018-11-21T02:43:27.350Z,2.87
2018-11-21T02:44:27.381Z,2.91
2018-11-21T02:45:27.328Z,2.88
2018-11-21T02:46:27.417Z,2.85
2018-11-21T02:47:27.307Z,2.87
2018-11-21T02:48:27.579Z,2.98
2018-11-21T02:49:27.289Z,2.92
2018-11-21T02:50:27.277Z,2.98
2018-11-21T02:51:27.267Z,2.89
2018-11-21T02:52:27.326Z,2.92
2018-11-21T02:53:27.247Z,2.91
2018-11-21T02:54:27.237Z,2.95
2018-11-21T02:55:27.226Z,2.91
2018-11-21T02:56:27.216Z,3.02
2018-11-21T02:57:27.206Z,2.97
2018-11-21T02:58:27.442Z,3.06
2018-11-21T02:59:27.186Z,3.09
2018-11-21T03:01:42.847Z,3.13
2018-11-21T03:02:42.813Z,3.10
2018-11-21T03:03:43.100Z,3.13
2018-11-21T03:04:42.790Z,3.07
2018-11-21T03:05:42.819Z,3.06
2018-11-21T03:06:42.771Z,3.10
2018-11-21T03:07:43.040Z,3.13
2018-11-21T03:08:42.751Z,3.10
2018-11-21T03:09:42.792Z,3.07
2018-11-21T03:10:42.738Z,3.13
2018-11-21T03:11:42.740Z,3.23
2018-11-21T03:12:42.710Z,3.16
2018-11-21T03:13:42.702Z,3.06
2018-11-21T03:14:42.975Z,3.15
2018-11-21T03:15:42.717Z,3.16
2018-11-21T03:16:42.676Z,3.16
2018-11-21T03:17:42.667Z,3.12
2018-11-21T03:18:42.660Z,3.12
2018-11-21T03:19:42.646Z,3.18
2018-11-21T03:20:42.652Z,3.09
2018-11-21T03:21:42.987Z,3.16
2018-11-21T03:22:42.616Z,3.20
2018-11-21T03:23:42.603Z,3.21
2018-11-21T03:24:42.593Z,3.24
2018-11-21T03:25:42.583Z,3.34
2018-11-21T03:26:42.570Z,3.24
2018-11-21T03:27:42.591Z,3.27
2018-11-21T03:28:42.558Z,3.27
2018-11-21T03:29:42.539Z,3.27
2018-11-21T03:30:42.532Z,3.20
2018-11-21T03:31:42.522Z,3.28
2018-11-21T03:32:42.517Z,3.30
2018-11-21T03:33:42.546Z,3.21
2018-11-21T03:34:42.779Z,3.24
2018-11-21T03:35:42.482Z,3.23
2018-11-21T03:36:42.471Z,3.18
2018-11-21T03:37:42.460Z,3.18
2018-11-21T03:38:43.080Z,3.18
2018-11-21T03:39:42.728Z,3.15
2018-11-21T03:40:42.428Z,3.15
2018-11-21T03:41:42.691Z,3.12
2018-11-21T03:42:42.405Z,3.20
2018-11-21T03:43:42.405Z,3.12
2018-11-21T03:44:42.386Z,3.13
2018-11-21T03:45:42.413Z,3.20
2018-11-21T03:46:42.373Z,3.23
2018-11-21T03:47:42.368Z,3.10
2018-11-21T03:48:42.626Z,3.15
2018-11-21T03:49:42.374Z,3.05
2018-11-21T03:50:42.331Z,3.10
2018-11-21T03:51:42.359Z,3.03
2018-11-21T03:52:42.309Z,3.10
2018-11-21T03:53:42.299Z,3.06
2018-11-21T03:54:42.291Z,2.98
2018-11-21T03:55:42.561Z,3.10
2018-11-21T03:56:42.265Z,3.05
2018-11-21T03:57:42.305Z,3.03
2018-11-21T03:58:42.250Z,3.10
2018-11-21T03:59:42.241Z,3.23
2018-11-21T04:00:42.228Z,3.13
2018-11-21T04:01:42.215Z,3.16
2018-11-21T04:02:42.210Z,3.20
2018-11-21T04:03:42.237Z,3.23
2018-11-21T04:04:42.188Z,3.18
2018-11-21T04:05:42.209Z,3.09
2018-11-21T04:06:42.164Z,3.03
2018-11-21T04:07:42.155Z,3.09
2018-11-21T04:08:42.795Z,3.06
2018-11-21T04:09:42.174Z,3.05
2018-11-21T04:10:42.119Z,3.05
2018-11-21T04:11:43.076Z,3.10
2018-11-21T04:12:42.099Z,3.00
2018-11-21T04:13:42.093Z,3.06
2018-11-21T04:14:42.078Z,3.00
2018-11-21T04:15:42.158Z,2.92
2018-11-21T04:16:42.058Z,3.05
2018-11-21T04:17:42.048Z,3.07
2018-11-21T04:18:42.045Z,3.03
2018-11-21T04:19:42.038Z,3.00
2018-11-21T04:20:42.294Z,2.98
2018-11-21T04:21:42.051Z,2.92
2018-11-21T04:22:42.000Z,2.92
2018-11-21T04:23:42.573Z,2.98
2018-11-21T04:24:41.976Z,3.00
2018-11-21T04:25:41.965Z,2.97
2018-11-21T04:26:42.573Z,2.95
2018-11-21T04:27:41.986Z,2.97
2018-11-21T04:28:41.940Z,2.97
2018-11-21T04:29:41.928Z,2.92
2018-11-21T04:30:41.990Z,3.05
2018-11-21T04:31:41.902Z,3.07
2018-11-21T04:32:42.303Z,2.92
2018-11-21T04:33:42.092Z,3.06
2018-11-21T04:34:42.576Z,2.95
2018-11-21T04:35:41.860Z,3.02
2018-11-21T04:36:41.848Z,2.98
2018-11-21T04:37:41.837Z,3.07
2018-11-21T04:38:41.831Z,3.02
2018-11-21T04:39:42.358Z,2.94
2018-11-21T04:40:41.898Z,2.97
2018-11-21T04:41:41.889Z,2.92
2018-11-21T04:42:41.786Z,2.95
2018-11-21T04:43:41.774Z,2.88
2018-11-21T04:44:41.770Z,2.92
2018-11-21T04:45:41.814Z,2.87
2018-11-21T04:46:43.173Z,2.88
2018-11-21T04:47:41.733Z,2.81
2018-11-21T04:48:41.721Z,2.81
2018-11-21T04:49:41.718Z,2.91
2018-11-21T04:50:41.701Z,2.92
2018-11-21T04:51:41.768Z,2.82
2018-11-21T04:52:41.685Z,2.82
2018-11-21T04:53:42.169Z,2.82
2018-11-21T04:54:41.657Z,2.81
2018-11-21T04:55:41.653Z,2.88
2018-11-21T04:56:41.646Z,2.89
2018-11-21T04:57:41.694Z,2.97
2018-11-21T04:58:41.623Z,2.98
2018-11-21T04:59:41.606Z,2.94
2018-11-21T05:00:42.025Z,2.89
2018-11-21T05:01:41.588Z,3.00
2018-11-21T05:02:41.650Z,2.89
2018-11-21T05:03:41.604Z,3.03
2018-11-21T05:04:41.561Z,3.00
2018-11-21T05:05:41.546Z,2.95
2018-11-21T05:06:41.536Z,3.05
2018-11-21T05:07:42.013Z,3.02
2018-11-21T05:08:41.514Z,3.02
2018-11-21T05:09:41.554Z,2.92
2018-11-21T05:10:41.502Z,2.94
2018-11-21T05:11:41.486Z,2.95
2018-11-21T05:12:41.485Z,3.03
2018-11-21T05:13:41.470Z,2.98
2018-11-21T05:14:41.835Z,3.03
2018-11-21T05:15:41.487Z,3.05
2018-11-21T05:16:41.437Z,3.05
2018-11-21T05:17:41.447Z,2.97
2018-11-21T05:18:41.591Z,2.89
2018-11-21T05:19:41.655Z,2.92
2018-11-21T05:20:41.393Z,3.06
2018-11-21T05:21:41.896Z,3.05
2018-11-21T05:22:41.372Z,3.10
2018-11-21T05:23:41.363Z,3.07
2018-11-21T05:24:41.351Z,3.03
2018-11-21T05:25:41.667Z,3.12
2018-11-21T05:26:41.454Z,3.07
2018-11-21T05:27:41.850Z,3.09
2018-11-21T05:28:41.530Z,3.09
2018-11-21T05:29:41.304Z,3.03
2018-11-21T05:30:41.301Z,3.10
2018-11-21T05:31:41.284Z,3.06
2018-11-21T05:32:41.274Z,3.02
2018-11-21T05:33:41.302Z,3.06
2018-11-21T05:34:41.545Z,2.98
2018-11-21T05:35:41.244Z,3.07
2018-11-21T05:36:41.234Z,3.03
2018-11-21T05:37:41.223Z,3.10
2018-11-21T05:38:41.217Z,3.12
2018-11-21T05:39:41.243Z,3.05
2018-11-21T05:40:41.191Z,3.05
2018-11-21T05:41:41.487Z,3.02
2018-11-21T05:42:41.178Z,3.07
2018-11-21T05:43:41.161Z,3.07
2018-11-21T05:44:41.154Z,3.09
2018-11-21T05:45:41.382Z,3.03
2018-11-21T05:46:41.138Z,3.06
2018-11-21T05:47:41.119Z,3.05
2018-11-21T05:48:41.819Z,3.05
2018-11-21T05:49:41.111Z,3.03
2018-11-21T05:50:41.102Z,3.13
2018-11-21T05:51:41.133Z,3.09
2018-11-21T05:52:41.105Z,3.07
2018-11-21T05:53:41.060Z,3.00
2018-11-21T05:54:41.058Z,3.02
2018-11-21T05:55:41.532Z,3.05
2018-11-21T05:56:41.565Z,2.97
2018-11-21T05:57:41.060Z,2.97
2018-11-21T05:58:41.027Z,3.03
2018-11-21T05:59:41.002Z,2.98
2018-11-21T06:00:41.044Z,3.00
2018-11-21T06:01:40.999Z,2.98
2018-11-21T06:02:41.337Z,2.94
2018-11-21T06:03:41.220Z,2.97
2018-11-21T06:04:40.953Z,2.98
2018-11-21T06:05:40.943Z,2.92
2018-11-21T06:06:41.111Z,2.97
2018-11-21T06:07:40.938Z,3.00
2018-11-21T06:08:41.565Z,3.00
2018-11-21T06:09:41.391Z,2.98
2018-11-21T06:10:40.891Z,2.97
2018-11-21T06:11:40.896Z,3.06
2018-11-21T06:12:40.869Z,2.95
2018-11-21T06:13:40.889Z,2.89
2018-11-21T06:14:41.084Z,2.92
2018-11-21T06:15:40.973Z,2.95
2018-11-21T06:16:41.363Z,2.91
2018-11-21T06:17:40.824Z,2.94
2018-11-21T06:18:41.151Z,2.94
2018-11-21T06:19:40.807Z,3.07
2018-11-21T06:20:40.937Z,3.03
2018-11-21T06:21:40.851Z,3.05
2018-11-21T06:22:41.026Z,3.12
2018-11-21T06:23:41.170Z,2.98
2018-11-21T06:24:40.799Z,3.09
2018-11-21T06:25:40.744Z,3.02
2018-11-21T06:26:40.734Z,3.07
2018-11-21T06:27:40.766Z,3.05
2018-11-21T06:28:40.726Z,3.02
2018-11-21T06:29:40.700Z,3.18
2018-11-21T06:30:41.176Z,3.10
2018-11-21T06:31:40.679Z,3.10
2018-11-21T06:32:40.666Z,3.13
2018-11-21T06:33:40.736Z,3.10
2018-11-21T06:34:40.865Z,3.20
2018-11-21T06:35:40.640Z,3.12
2018-11-21T06:36:40.625Z,3.18
2018-11-21T06:37:40.985Z,3.05
2018-11-21T06:38:40.616Z,3.20
2018-11-21T06:39:40.731Z,3.20
2018-11-21T06:40:40.585Z,3.15
2018-11-21T06:41:40.806Z,3.07
2018-11-21T06:42:40.563Z,3.05
2018-11-21T06:43:42.494Z,3.06
2018-11-21T06:44:41.007Z,3.06
2018-11-21T06:45:40.589Z,3.07
2018-11-21T06:46:40.528Z,3.10
2018-11-21T06:47:40.518Z,3.10
2018-11-21T06:48:40.602Z,3.13
2018-11-21T06:49:40.498Z,3.12
2018-11-21T06:50:40.508Z,3.13
2018-11-21T06:51:40.856Z,3.20
2018-11-21T06:52:40.463Z,3.10
2018-11-21T06:53:40.453Z,3.13
2018-11-21T06:54:40.456Z,3.07
2018-11-21T06:55:40.432Z,3.03
2018-11-21T06:56:40.756Z,3.16
2018-11-21T06:57:40.782Z,3.25
2018-11-21T06:58:40.409Z,3.25
2018-11-21T06:59:40.403Z,3.15
2018-11-21T07:00:40.383Z,3.12
2018-11-21T07:01:40.395Z,3.25
2018-11-21T07:02:40.405Z,3.23
2018-11-21T07:03:40.395Z,3.25
2018-11-21T07:04:40.803Z,3.21
2018-11-21T07:05:40.371Z,3.15
2018-11-21T07:06:40.327Z,3.15
2018-11-21T07:07:40.338Z,3.16
2018-11-21T07:08:40.615Z,3.18
2018-11-21T07:09:40.859Z,3.25
2018-11-21T07:10:40.475Z,3.23
2018-11-21T07:11:40.923Z,3.25
2018-11-21T07:12:40.793Z,3.21
2018-11-21T07:13:40.426Z,3.24
2018-11-21T07:14:40.241Z,3.30
2018-11-21T07:15:40.375Z,3.25
2018-11-21T07:16:40.577Z,3.25
2018-11-21T07:17:40.215Z,3.24
2018-11-21T07:18:40.213Z,3.24
2018-11-21T07:19:40.195Z,3.20
2018-11-21T07:20:40.187Z,3.25
2018-11-21T07:21:40.245Z,3.25
2018-11-21T07:22:40.559Z,3.28
2018-11-21T07:23:40.152Z,3.24
2018-11-21T07:24:40.148Z,3.24
2018-11-21T07:25:40.130Z,3.18
2018-11-21T07:26:40.124Z,3.27
2018-11-21T07:27:40.197Z,3.25
2018-11-21T07:28:41.058Z,3.21
2018-11-21T07:29:41.403Z,3.21
2018-11-21T07:30:41.040Z,3.30
2018-11-21T07:31:43.034Z,3.21
2018-11-21T07:32:40.062Z,3.25
2018-11-21T07:33:46.330Z,3.33
2018-11-21T07:34:40.041Z,3.28
2018-11-21T07:35:40.544Z,3.31
2018-11-21T07:36:40.405Z,3.42
2018-11-21T07:37:40.534Z,3.39
2018-11-21T07:38:39.998Z,3.33
2018-11-21T07:39:40.025Z,3.28
2018-11-21T07:40:40.153Z,3.24
2018-11-21T07:41:40.186Z,3.34
2018-11-21T07:42:39.957Z,3.27
2018-11-21T07:43:40.425Z,3.31
2018-11-21T07:44:39.954Z,3.23
2018-11-21T07:45:40.160Z,3.28
2018-11-21T07:46:39.930Z,3.28
2018-11-21T07:47:39.909Z,3.40
2018-11-21T07:48:39.923Z,3.49
2018-11-21T07:49:39.886Z,3.53
2018-11-21T07:50:40.732Z,3.50
2018-11-21T07:51:39.936Z,3.53
2018-11-21T07:52:39.857Z,3.49
2018-11-21T07:53:39.845Z,3.43
2018-11-21T07:54:39.834Z,3.42
2018-11-21T07:55:39.914Z,3.36
2018-11-21T07:56:39.934Z,3.34
2018-11-21T07:57:40.472Z,3.40
2018-11-21T07:58:39.947Z,3.40
2018-11-21T07:59:39.822Z,3.40
2018-11-21T08:00:39.978Z,3.44
2018-11-21T08:01:39.793Z,3.42
2018-11-21T08:02:40.107Z,3.47
2018-11-21T08:03:39.780Z,3.46
2018-11-21T08:04:40.903Z,3.57
2018-11-21T08:05:44.330Z,3.58
2018-11-21T08:06:39.721Z,3.58
2018-11-21T08:07:39.727Z,3.57
2018-11-21T08:08:40.076Z,3.49
2018-11-21T08:09:40.048Z,3.50
2018-11-21T08:10:39.674Z,3.53
2018-11-21T08:11:40.170Z,3.57
2018-11-21T08:12:39.650Z,3.47
2018-11-21T08:13:39.729Z,3.58
2018-11-21T08:14:39.841Z,3.58
2018-11-21T08:15:39.786Z,3.58
2018-11-21T08:16:39.881Z,3.62
2018-11-21T08:17:39.603Z,3.57
2018-11-21T08:18:39.920Z,3.58
2018-11-21T08:19:39.577Z,3.62
2018-11-21T08:20:39.572Z,3.65
2018-11-21T08:21:39.597Z,3.65
2018-11-21T08:22:39.548Z,3.57
2018-11-21T08:23:39.539Z,3.58
2018-11-21T08:24:39.526Z,3.57
2018-11-21T08:25:40.648Z,3.57
2018-11-21T08:26:39.512Z,3.46
2018-11-21T08:27:39.561Z,3.54
2018-11-21T08:28:39.560Z,3.60
2018-11-21T08:29:39.589Z,3.67
2018-11-21T08:30:39.590Z,3.71
2018-11-21T08:31:39.625Z,3.70
2018-11-21T08:32:40.589Z,3.75
2018-11-21T08:33:39.641Z,3.71
2018-11-21T08:34:39.538Z,3.70
2018-11-21T08:35:39.437Z,3.62
2018-11-21T08:36:39.406Z,3.64
2018-11-21T08:37:39.857Z,3.58
2018-11-21T08:38:40.450Z,3.71
2018-11-21T08:39:40.332Z,3.65
2018-11-21T08:40:39.393Z,3.68
2018-11-21T08:41:39.349Z,3.72
2018-11-21T08:42:39.338Z,3.78
2018-11-21T08:43:39.329Z,3.72
2018-11-21T08:44:39.319Z,3.75
2018-11-21T08:45:39.800Z,3.71
2018-11-21T08:46:39.301Z,3.72
2018-11-21T08:47:39.293Z,3.72
2018-11-21T08:48:39.299Z,3.72
2018-11-21T08:49:39.269Z,3.75
2018-11-21T08:50:39.273Z,3.79
2018-11-21T08:51:39.286Z,3.70
2018-11-21T08:52:39.584Z,3.76
2018-11-21T08:53:39.230Z,3.70
2018-11-21T08:54:39.290Z,3.71
2018-11-21T08:55:39.204Z,3.86
2018-11-21T08:56:39.236Z,3.79
2018-11-21T08:57:39.228Z,3.86
2018-11-21T08:58:39.570Z,4.04
2018-11-21T08:59:39.380Z,4.04
2018-11-21T09:00:39.153Z,3.92
2018-11-21T09:01:39.143Z,4.03
2018-11-21T09:02:39.296Z,4.03
2018-11-21T09:03:40.616Z,4.14
2018-11-21T09:04:39.495Z,4.16
2018-11-21T09:05:39.633Z,4.15
2018-11-21T09:06:39.091Z,4.14
2018-11-21T09:07:39.079Z,4.26
2018-11-21T09:08:44.126Z,4.18
2018-11-21T09:09:40.259Z,4.14
2018-11-21T09:11:16.197Z,4.14
2018-11-21T09:11:41.836Z,4.00
2018-11-21T09:12:39.861Z,4.06
2018-11-21T09:13:39.996Z,4.10
2018-11-21T09:14:41.412Z,3.97
2018-11-21T09:15:42.535Z,4.03
2018-11-21T09:16:39.185Z,3.98
2018-11-21T09:17:39.303Z,3.88
2018-11-21T09:18:39.328Z,3.85
2018-11-21T09:19:39.245Z,3.96
2018-11-21T09:20:39.519Z,4.04
2018-11-21T09:21:39.476Z,4.03
2018-11-21T09:22:39.040Z,4.03
2018-11-21T09:23:39.911Z,4.00
2018-11-21T09:24:39.119Z,4.00
2018-11-21T09:25:38.897Z,4.04
2018-11-21T09:26:38.880Z,4.03
2018-11-21T09:27:40.693Z,4.07
2018-11-21T09:28:39.502Z,4.15
2018-11-21T09:29:38.843Z,4.06
2018-11-21T09:30:39.298Z,4.12
2018-11-21T09:31:38.824Z,4.10
2018-11-21T09:32:39.271Z,4.12
2018-11-21T09:33:38.966Z,4.16
2018-11-21T09:34:41.511Z,4.18
2018-11-21T09:35:38.835Z,4.33
2018-11-21T09:36:38.768Z,4.26
2018-11-21T09:37:38.757Z,4.36
2018-11-21T09:38:38.784Z,4.29
2018-11-21T09:39:39.087Z,4.34
2018-11-21T09:40:38.919Z,4.25
2018-11-21T09:41:38.926Z,4.32
2018-11-21T09:42:39.109Z,4.22
2018-11-21T09:43:39.233Z,4.26
2018-11-21T09:44:39.212Z,4.33
2018-11-21T09:45:38.943Z,4.32
2018-11-21T09:46:38.669Z,4.32
2018-11-21T09:47:38.678Z,4.28
2018-11-21T09:48:38.652Z,4.24
2018-11-21T09:49:39.614Z,4.37
2018-11-21T09:50:38.626Z,4.43
2018-11-21T09:51:38.756Z,4.39
2018-11-21T09:52:38.639Z,4.40
2018-11-21T09:53:38.590Z,4.26
2018-11-21T09:54:38.577Z,4.37
2018-11-21T09:55:40.531Z,4.47
2018-11-21T09:56:39.468Z,4.54
2018-11-21T09:57:39.014Z,4.61
2018-11-21T09:58:38.536Z,4.70
2018-11-21T09:59:38.531Z,4.76
2018-11-21T10:00:39.469Z,4.73
2018-11-21T10:01:38.659Z,4.64
2018-11-21T10:02:38.495Z,4.70
2018-11-21T10:03:38.964Z,4.75
2018-11-21T10:04:38.502Z,4.86
2018-11-21T10:05:53.097Z,4.95
2018-11-21T10:06:38.743Z,4.88
2018-11-21T10:07:38.734Z,4.99
2018-11-21T10:08:38.435Z,4.98
2018-11-21T10:09:40.887Z,4.98
2018-11-21T10:10:51.017Z,4.91
2018-11-21T10:11:39.766Z,5.09
2018-11-21T10:12:38.418Z,5.14
2018-11-21T10:13:38.390Z,5.17
2018-11-21T10:14:38.430Z,5.10
2018-11-21T10:15:39.630Z,5.19
2018-11-21T10:16:38.639Z,5.25
2018-11-21T10:17:40.186Z,5.30
2018-11-21T10:18:38.405Z,5.20
2018-11-21T10:19:38.491Z,5.22
2018-11-21T10:20:38.419Z,5.19
2018-11-21T10:21:38.678Z,5.13
2018-11-21T10:22:38.334Z,5.23
2018-11-21T10:23:39.009Z,5.20
2018-11-21T10:24:38.590Z,5.23
2018-11-21T10:25:38.269Z,5.25
2018-11-21T10:26:38.248Z,5.27
2018-11-21T10:27:38.462Z,5.23
2018-11-21T10:28:38.228Z,5.16
2018-11-21T10:29:38.215Z,5.22
2018-11-21T10:30:38.206Z,5.23
2018-11-21T10:31:38.635Z,5.20
2018-11-21T10:32:38.288Z,5.30
2018-11-21T10:33:38.623Z,5.27
2018-11-21T10:34:38.338Z,5.40
2018-11-21T10:35:38.329Z,5.22
2018-11-21T10:36:38.564Z,5.28
2018-11-21T10:37:38.808Z,5.34
2018-11-21T10:38:39.668Z,5.27
2018-11-21T10:39:38.235Z,5.35
2018-11-21T10:40:38.182Z,5.30
2018-11-21T10:41:38.115Z,5.31
2018-11-21T10:42:41.071Z,5.20
2018-11-21T10:43:40.184Z,5.13
2018-11-21T10:44:38.607Z,5.12
2018-11-21T10:45:39.098Z,5.20
2018-11-21T10:46:38.384Z,5.23
2018-11-21T10:47:39.288Z,5.17
2018-11-21T10:48:38.100Z,5.27
2018-11-21T10:49:38.027Z,5.30
2018-11-21T10:50:38.001Z,5.25
2018-11-21T10:51:38.084Z,5.32
2018-11-21T10:52:38.454Z,5.13
2018-11-21T10:53:38.011Z,5.07
2018-11-21T10:54:38.528Z,4.95
2018-11-21T10:55:37.953Z,4.92
2018-11-21T10:56:37.943Z,4.92
2018-11-21T10:57:38.035Z,4.96
2018-11-21T10:58:38.252Z,4.86
2018-11-21T10:59:38.578Z,4.77
2018-11-21T11:00:39.592Z,4.75
2018-11-21T11:01:38.695Z,4.76
2018-11-21T11:02:38.631Z,4.84
2018-11-21T11:03:39.107Z,4.88
2018-11-21T11:04:37.855Z,4.88
2018-11-21T11:05:39.496Z,4.89
2018-11-21T11:06:39.123Z,4.94
2018-11-21T11:07:39.669Z,4.91
2018-11-21T11:08:37.850Z,5.02
2018-11-21T11:09:38.134Z,4.96
2018-11-21T11:10:37.809Z,4.95
2018-11-21T11:11:38.121Z,4.95
2018-11-21T11:12:37.773Z,5.02
2018-11-21T11:13:37.782Z,5.04
2018-11-21T11:14:39.260Z,5.05
2018-11-21T11:15:39.563Z,5.16
2018-11-21T11:16:37.927Z,5.32
2018-11-21T11:17:38.005Z,5.34
2018-11-21T11:18:53.163Z,5.50
2018-11-21T11:19:38.251Z,5.63
2018-11-21T11:20:37.741Z,5.59
2018-11-21T11:21:38.129Z,5.46
2018-11-21T11:22:37.817Z,5.37
2018-11-21T11:23:37.804Z,5.27
2018-11-21T11:24:38.061Z,5.14
2018-11-21T11:25:39.200Z,5.07
2018-11-21T11:26:37.744Z,5.13
2018-11-21T11:27:38.044Z,5.05
2018-11-21T11:28:37.754Z,5.10
2018-11-21T11:29:37.803Z,5.23
2018-11-21T11:30:38.256Z,5.19
2018-11-21T11:31:37.764Z,4.96
2018-11-21T11:32:37.677Z,4.94
2018-11-21T11:33:53.755Z,4.94
2018-11-21T11:34:37.842Z,4.91
2018-11-21T11:35:37.591Z,5.09
2018-11-21T11:38:36.150Z,5.17
2018-11-21T11:39:36.192Z,5.19
2018-11-21T11:40:36.100Z,5.20
2018-11-21T11:41:36.085Z,5.31
2018-11-21T11:42:37.486Z,5.34
2018-11-21T11:43:36.061Z,5.25
2018-11-21T11:44:36.061Z,5.23
2018-11-21T11:45:36.156Z,5.25
2018-11-21T11:46:37.013Z,5.32
2018-11-21T11:47:36.070Z,5.37
2018-11-21T11:48:36.016Z,5.43
2018-11-21T11:49:36.882Z,5.34
2018-11-21T11:50:36.512Z,5.31
2018-11-21T11:51:36.856Z,5.38
2018-11-21T11:52:36.526Z,5.37
2018-11-21T11:53:36.522Z,5.30
2018-11-21T11:54:35.955Z,5.31
2018-11-21T11:55:35.935Z,5.13
2018-11-21T11:56:36.291Z,5.17
2018-11-21T11:57:36.842Z,5.12
2018-11-21T11:58:35.909Z,5.07
2018-11-21T11:59:42.977Z,4.91
2018-11-21T12:00:35.885Z,4.89
2018-11-21T12:01:35.876Z,4.91
2018-11-21T12:02:35.886Z,4.89
2018-11-21T12:03:36.009Z,4.79
2018-11-21T12:04:35.879Z,4.75
2018-11-21T12:05:35.912Z,4.73
2018-11-21T12:06:35.823Z,4.73
2018-11-21T12:07:35.892Z,4.76
2018-11-21T12:08:35.884Z,4.89
2018-11-21T12:09:37.397Z,5.02
2018-11-21T12:10:35.804Z,4.92
2018-11-21T12:11:35.775Z,4.96
2018-11-21T12:12:40.081Z,5.04
2018-11-21T12:13:35.882Z,4.92
2018-11-21T12:14:35.960Z,5.01
2018-11-21T12:15:36.310Z,4.95
2018-11-21T12:16:36.309Z,4.95
2018-11-21T12:17:35.709Z,4.96
2018-11-21T12:18:35.727Z,4.92
2018-11-21T12:19:35.763Z,5.02
2018-11-21T12:20:35.929Z,4.94
2018-11-21T12:21:35.822Z,4.94
2018-11-21T12:22:35.653Z,4.96
2018-11-21T12:23:37.159Z,4.98
2018-11-21T12:24:35.660Z,5.01
2018-11-21T12:25:35.716Z,4.99
2018-11-21T12:26:35.675Z,5.07
2018-11-21T12:27:36.191Z,5.01
2018-11-21T12:28:36.597Z,4.99
2018-11-21T12:29:35.713Z,4.98
2018-11-21T12:30:38.307Z,5.04
2018-11-21T12:31:35.563Z,4.96
2018-11-21T12:32:39.297Z,4.98
2018-11-21T12:33:35.863Z,4.94
2018-11-21T12:34:35.531Z,4.86
2018-11-21T12:35:35.520Z,4.69
2018-11-21T12:36:35.527Z,4.59
2018-11-21T12:37:35.958Z,4.65
2018-11-21T12:38:35.507Z,4.55
2018-11-21T12:39:35.611Z,4.50
2018-11-21T12:40:35.650Z,4.58
2018-11-21T12:41:35.501Z,4.51
2018-11-21T12:42:35.473Z,4.55
2018-11-21T12:43:35.447Z,4.61
2018-11-21T12:44:35.791Z,4.62
2018-11-21T12:45:35.581Z,4.75
2018-11-21T12:46:35.412Z,4.92
2018-11-21T12:47:35.415Z,4.91
2018-11-21T12:48:35.394Z,4.86
2018-11-21T12:49:35.371Z,4.77
2018-11-21T12:50:35.492Z,4.69
2018-11-21T12:51:35.892Z,4.69
2018-11-21T12:52:35.341Z,4.58
2018-11-21T12:53:35.343Z,4.55
2018-11-21T12:54:35.314Z,4.62
2018-11-21T12:55:35.475Z,4.69
2018-11-21T12:56:35.333Z,4.73
2018-11-21T12:57:35.891Z,4.62
2018-11-21T12:58:35.896Z,4.69
2018-11-21T12:59:35.375Z,4.61
2018-11-21T13:00:35.303Z,4.59
2018-11-21T13:01:56.261Z,4.54
2018-11-21T13:02:35.240Z,4.24
2018-11-21T13:03:35.288Z,4.32
2018-11-21T13:04:35.213Z,4.33
2018-11-21T13:05:35.537Z,4.33
2018-11-21T13:06:35.191Z,4.40
2018-11-21T13:07:35.182Z,4.34
2018-11-21T13:08:35.172Z,4.43
2018-11-21T13:09:35.242Z,4.32
2018-11-21T13:10:35.150Z,4.39
2018-11-21T13:11:35.139Z,4.44
2018-11-21T13:12:35.481Z,4.47
2018-11-21T13:13:35.273Z,4.59
2018-11-21T13:14:51.062Z,4.46
2018-11-21T13:15:43.234Z,4.54
2018-11-21T13:16:37.001Z,4.59
2018-11-21T13:17:35.078Z,4.50
2018-11-21T13:18:36.994Z,4.61
2018-11-21T13:19:35.465Z,4.64
2018-11-21T13:20:35.059Z,4.55
2018-11-21T13:21:36.787Z,4.52